createdAt,value
2022-11-30T00:00:46.977Z,101957.91
2022-11-30T00:03:15.120Z,101955.28
2022-11-30T00:05:46.061Z,101958.00
2022-11-30T00:08:17.171Z,101958.00
2022-11-30T00:10:46.821Z,101960.63
2022-11-30T00:13:16.421Z,101960.56
2022-11-30T00:15:44.375Z,101964.09
2022-11-30T00:18:12.304Z,101966.81
2022-11-30T00:20:40.270Z,101962.41
2022-11-30T00:23:10.084Z,101963.22
2022-11-30T00:26:43.232Z,101964.09
2022-11-30T00:28:47.647Z,101962.25
2022-11-30T00:31:22.962Z,101964.94
2022-11-30T00:33:54.077Z,101958.75
2022-11-30T00:36:31.430Z,101961.47
2022-11-30T00:39:35.930Z,101967.66
2022-11-30T00:43:38.558Z,101958.66
2022-11-30T00:45:52.589Z,101962.19
2022-11-30T00:48:22.280Z,101963.06
2022-11-30T00:50:52.449Z,101966.69
2022-11-30T00:53:22.805Z,101964.00
2022-11-30T00:55:52.955Z,101967.47
2022-11-30T00:58:23.144Z,101979.00
2022-11-30T01:00:54.859Z,101981.63
2022-11-30T01:03:45.133Z,101969.97
2022-11-30T01:06:15.098Z,101969.13
2022-11-30T01:08:43.057Z,101962.78
2022-11-30T01:11:17.819Z,101971.53
2022-11-30T01:13:45.903Z,101976.81
2022-11-30T01:16:24.396Z,101974.91
2022-11-30T01:18:55.002Z,101981.19
2022-11-30T01:22:17.941Z,101975.06
2022-11-30T01:24:30.099Z,101986.59
2022-11-30T01:27:01.389Z,101996.41
2022-11-30T01:29:35.374Z,101990.06
2022-11-30T01:32:06.254Z,101992.56
2022-11-30T01:34:34.648Z,101988.16
2022-11-30T01:37:02.584Z,101990.88
2022-11-30T01:39:46.748Z,101994.19
2022-11-30T01:42:17.032Z,101991.50
2022-11-30T01:44:56.450Z,101994.81
2022-11-30T01:47:31.501Z,101994.03
2022-11-30T01:50:05.755Z,102007.13
2022-11-30T01:52:38.521Z,102010.75
2022-11-30T01:55:15.450Z,102011.50
2022-11-30T01:57:49.083Z,102015.88
2022-11-30T02:00:17.480Z,102013.13
2022-11-30T02:02:53.936Z,102013.25
2022-11-30T02:05:23.098Z,102017.59
2022-11-30T02:07:51.274Z,102020.84
2022-11-30T02:10:25.118Z,102015.59
2022-11-30T02:13:19.170Z,102023.50
2022-11-30T02:15:57.502Z,102016.44
2022-11-30T02:18:32.282Z,102033.22
2022-11-30T02:21:12.073Z,102020.06
2022-11-30T02:24:17.658Z,102024.25
2022-11-30T02:26:59.716Z,102021.34
2022-11-30T02:29:33.125Z,102018.59
2022-11-30T02:32:08.000Z,102019.56
2022-11-30T02:34:38.186Z,102024.06
2022-11-30T02:37:08.019Z,102027.84
2022-11-30T02:39:36.142Z,102020.84
2022-11-30T02:42:04.182Z,102010.22
2022-11-30T02:44:33.715Z,102019.22
2022-11-30T02:47:13.281Z,102012.97
2022-11-30T02:49:48.871Z,102010.25
2022-11-30T02:52:17.478Z,102012.91
2022-11-30T02:54:48.049Z,102018.38
2022-11-30T02:57:16.276Z,102014.84
2022-11-30T02:59:45.762Z,102014.75
2022-11-30T03:02:13.995Z,102012.06
2022-11-30T03:04:41.966Z,102017.44
2022-11-30T03:07:09.895Z,102008.59
2022-11-30T03:09:37.835Z,102009.31
2022-11-30T03:12:06.329Z,102013.84
2022-11-30T03:14:34.208Z,102010.34
2022-11-30T03:17:05.696Z,102012.09
2022-11-30T03:19:33.691Z,102016.56
2022-11-30T03:22:01.585Z,102016.56
2022-11-30T03:24:29.483Z,102009.31
2022-11-30T03:26:57.341Z,102015.63
2022-11-30T03:29:25.211Z,102013.91
2022-11-30T03:31:53.144Z,102013.00
2022-11-30T03:34:22.797Z,102012.16
2022-11-30T03:36:50.666Z,102013.00
2022-11-30T03:39:18.756Z,102013.91
2022-11-30T03:41:46.607Z,102010.34
2022-11-30T03:44:14.787Z,102004.03
2022-11-30T03:46:42.609Z,102018.25
2022-11-30T03:49:10.432Z,102019.09
2022-11-30T03:51:39.731Z,102024.47
2022-11-30T03:54:07.528Z,102028.03
2022-11-30T05:29:37.532Z,102059.94
2022-11-30T08:43:26.628Z,102180.66
2022-11-30T08:45:57.329Z,102188.78
2022-11-30T08:48:26.217Z,102187.66
2022-11-30T08:50:54.172Z,102183.06
2022-11-30T08:53:21.881Z,102184.78
2022-11-30T08:55:56.976Z,102196.38
2022-11-30T08:58:26.317Z,102187.41
2022-11-30T09:00:54.278Z,102193.56
2022-11-30T09:03:22.417Z,102203.25
2022-11-30T09:05:50.274Z,102199.03
2022-11-30T09:08:18.104Z,102199.88
2022-11-30T09:10:45.822Z,102195.41
2022-11-30T09:13:16.867Z,102203.56
2022-11-30T09:15:46.241Z,102203.47
2022-11-30T09:18:14.781Z,102201.81
2022-11-30T09:20:42.622Z,102199.19
2022-11-30T09:23:10.563Z,102202.72
2022-11-30T09:25:38.307Z,102209.81
2022-11-30T09:28:12.018Z,102210.97
2022-11-30T09:30:40.346Z,102205.69
2022-11-30T09:33:09.664Z,102212.84
2022-11-30T09:35:37.534Z,102206.28
2022-11-30T09:38:06.113Z,102214.75
2022-11-30T09:40:36.065Z,102215.56
2022-11-30T09:43:08.065Z,102215.78
2022-11-30T09:45:38.140Z,102211.56
2022-11-30T09:48:25.348Z,102207.03
2022-11-30T09:50:55.919Z,102209.69
2022-11-30T09:53:29.870Z,102209.75
2022-11-30T09:56:00.117Z,102202.81
2022-11-30T09:58:39.164Z,102208.22
2022-11-30T10:01:14.593Z,102200.25
2022-11-30T10:03:44.062Z,102196.53
2022-11-30T10:06:18.147Z,102195.75
2022-11-30T10:09:01.221Z,102201.38
2022-11-30T10:11:42.392Z,102206.81
2022-11-30T10:14:35.334Z,102195.47
2022-11-30T10:17:13.339Z,102192.66
2022-11-30T10:20:01.885Z,102195.13
2022-11-30T10:22:40.371Z,102193.47
2022-11-30T10:25:24.929Z,102179.31
2022-11-30T10:27:57.491Z,102187.19
2022-11-30T10:30:26.300Z,102187.25
2022-11-30T10:32:56.867Z,102181.81
2022-11-30T10:35:42.382Z,102181.16
2022-11-30T10:38:16.457Z,102183.78
2022-11-30T10:40:50.445Z,102182.78
2022-11-30T10:43:26.854Z,102178.34
2022-11-30T10:45:54.822Z,102181.72
2022-11-30T10:48:29.473Z,102186.28
2022-11-30T10:50:59.846Z,102187.34
2022-11-30T10:53:27.893Z,102190.38
2022-11-30T10:56:02.875Z,102182.47
2022-11-30T10:58:34.317Z,102188.84
2022-11-30T11:01:05.707Z,102189.00
2022-11-30T11:03:34.805Z,102187.34
2022-11-30T11:06:23.065Z,102189.97
2022-11-30T11:08:51.347Z,102182.06
2022-11-30T11:11:31.404Z,102179.56
2022-11-30T11:14:20.092Z,102178.66
2022-11-30T11:16:54.217Z,102174.19
2022-11-30T11:19:31.822Z,102171.63
2022-11-30T11:22:03.578Z,102176.06
2022-11-30T11:24:31.898Z,102175.13
2022-11-30T11:27:00.129Z,102171.63
2022-11-30T11:29:34.436Z,102185.59
2022-11-30T11:32:19.036Z,102184.78
2022-11-30T11:34:51.115Z,102185.69
2022-11-30T11:37:23.459Z,102178.75
2022-11-30T11:40:00.541Z,102185.06
2022-11-30T11:42:31.353Z,102185.00
2022-11-30T11:45:01.359Z,102181.47
2022-11-30T11:47:36.369Z,102184.13
2022-11-30T11:50:50.004Z,102184.81
2022-11-30T11:53:25.074Z,102192.81
2022-11-30T11:55:57.439Z,102192.81
2022-11-30T11:58:38.142Z,102187.28
2022-11-30T12:01:38.590Z,102198.06
2022-11-30T12:04:13.870Z,102185.53
2022-11-30T12:06:45.884Z,102188.97
2022-11-30T12:09:19.454Z,102192.66
2022-11-30T12:11:50.955Z,102184.69
2022-11-30T12:14:20.586Z,102191.00
2022-11-30T12:17:03.698Z,102184.97
2022-11-30T12:19:38.271Z,102187.81
2022-11-30T12:22:16.932Z,102185.06
2022-11-30T12:25:14.253Z,102184.25
2022-11-30T12:27:53.625Z,102181.59
2022-11-30T12:30:24.966Z,102182.28
2022-11-30T12:33:12.942Z,102188.28
2022-11-30T12:35:52.416Z,102186.59
2022-11-30T12:38:32.865Z,102187.28
2022-11-30T12:41:15.155Z,102195.34
2022-11-30T12:43:49.726Z,102183.13
2022-11-30T12:46:28.706Z,102186.72
2022-11-30T12:49:13.479Z,102192.16
2022-11-30T12:51:47.831Z,102189.53
2022-11-30T12:54:26.225Z,102197.59
2022-11-30T12:57:01.355Z,102207.97
2022-11-30T12:59:37.021Z,102204.53
2022-11-30T13:02:32.336Z,102202.84
2022-11-30T13:05:04.840Z,102204.59
2022-11-30T13:07:35.729Z,102210.69
2022-11-30T13:10:09.908Z,102212.59
2022-11-30T13:12:43.806Z,102210.81
2022-11-30T13:15:17.240Z,102195.81
2022-11-30T13:17:46.331Z,102207.25
2022-11-30T13:20:22.380Z,102207.97
2022-11-30T13:22:57.067Z,102202.00
2022-11-30T13:26:06.923Z,102196.72
2022-11-30T13:28:32.578Z,102202.03
2022-11-30T13:31:05.892Z,102202.16
2022-11-30T13:34:00.865Z,102200.22
2022-11-30T13:36:34.038Z,102201.03
2022-11-30T13:39:29.873Z,102202.78
2022-11-30T13:42:34.445Z,102195.78
2022-11-30T13:45:20.173Z,102196.63
2022-11-30T13:47:51.245Z,102201.81
2022-11-30T13:50:27.751Z,102200.06
2022-11-30T13:53:34.027Z,102202.69
2022-11-30T13:56:08.071Z,102210.84
2022-11-30T13:58:36.284Z,102205.66
2022-11-30T14:01:26.287Z,102208.19
2022-11-30T14:04:23.955Z,102216.22
2022-11-30T14:06:55.647Z,102212.72
2022-11-30T14:09:59.165Z,102220.66
2022-11-30T14:12:58.737Z,102219.88
2022-11-30T14:15:56.587Z,102220.94
2022-11-30T14:18:34.497Z,102225.25
2022-11-30T14:21:04.726Z,102223.41
2022-11-30T14:23:41.431Z,102211.91
2022-11-30T14:26:11.532Z,102226.06
2022-11-30T14:28:44.811Z,102226.94
2022-11-30T14:31:18.827Z,102230.53
2022-11-30T14:33:52.789Z,102232.31
2022-11-30T14:36:42.029Z,102230.47
2022-11-30T14:39:26.367Z,102229.63
2022-11-30T14:41:54.409Z,102237.63
2022-11-30T14:44:22.335Z,102230.47
2022-11-30T14:46:57.997Z,102235.66
2022-11-30T14:49:27.173Z,102230.47
2022-11-30T14:52:00.195Z,102228.69
2022-11-30T14:54:45.108Z,102231.31
2022-11-30T14:57:19.881Z,102233.94
2022-11-30T14:59:51.365Z,102228.53
2022-11-30T15:02:27.506Z,102228.38
2022-11-30T15:04:59.617Z,102231.06
2022-11-30T15:07:29.717Z,102234.72
2022-11-30T15:10:04.765Z,102228.56
2022-11-30T15:12:33.302Z,102225.56
2022-11-30T15:15:15.476Z,102237.22
2022-11-30T15:17:53.071Z,102229.34
2022-11-30T15:20:31.531Z,102231.06
2022-11-30T15:23:00.551Z,102238.13
2022-11-30T15:25:36.058Z,102239.84
2022-11-30T15:28:04.940Z,102233.53
2022-11-30T15:30:34.477Z,102242.53
2022-11-30T15:33:02.345Z,102241.84
2022-11-30T15:35:50.332Z,102246.31
2022-11-30T15:38:22.657Z,102247.22
2022-11-30T15:40:54.527Z,102254.34
2022-11-30T15:43:25.748Z,102259.81
2022-11-30T15:45:56.676Z,102254.22
2022-11-30T15:48:30.237Z,102259.56
2022-11-30T15:50:59.776Z,102269.34
2022-11-30T15:53:48.642Z,102264.88
2022-11-30T15:56:25.101Z,102275.63
2022-11-30T15:59:02.743Z,102268.59
2022-11-30T16:01:32.169Z,102269.31
2022-11-30T16:04:05.679Z,102271.06
2022-11-30T16:06:37.280Z,102269.38
2022-11-30T16:09:17.129Z,102279.81
2022-11-30T16:11:44.926Z,102279.13
2022-11-30T16:14:16.631Z,102278.34
2022-11-30T16:16:45.311Z,102280.94
2022-11-30T16:19:13.319Z,102281.63
2022-11-30T16:21:42.806Z,102281.31
2022-11-30T16:24:14.469Z,102279.56
2022-11-30T16:26:50.893Z,102274.28
2022-11-30T16:29:19.594Z,102282.38
2022-11-30T16:31:47.583Z,102281.47
2022-11-30T16:34:15.489Z,102278.78
2022-11-30T16:36:45.581Z,102281.50
2022-11-30T16:39:14.410Z,102288.53
2022-11-30T16:41:43.596Z,102290.16
2022-11-30T16:44:14.774Z,102282.97
2022-11-30T16:46:42.868Z,102296.84
2022-11-30T16:49:11.843Z,102292.31
2022-11-30T16:51:42.029Z,102293.38
2022-11-30T16:54:13.676Z,102293.25
2022-11-30T16:56:42.075Z,102288.78
2022-11-30T16:59:16.216Z,102292.38
2022-11-30T17:01:46.950Z,102297.72
2022-11-30T17:04:19.324Z,102299.56
2022-11-30T17:06:50.572Z,102305.81
2022-11-30T17:09:22.110Z,102303.84
2022-11-30T17:11:51.591Z,102302.88
2022-11-30T17:14:22.881Z,102303.78
2022-11-30T17:16:50.806Z,102304.47
2022-11-30T17:19:18.818Z,102307.28
2022-11-30T17:21:48.390Z,102309.00
2022-11-30T17:24:16.352Z,102312.59
2022-11-30T17:26:45.974Z,102314.50
2022-11-30T17:29:13.920Z,102313.69
2022-11-30T17:31:44.892Z,102318.09
2022-11-30T17:34:12.919Z,102317.25
2022-11-30T17:36:57.105Z,102318.19
2022-11-30T17:39:25.600Z,102315.63
2022-11-30T17:41:55.624Z,102312.16
2022-11-30T17:44:23.491Z,102321.53
2022-11-30T17:46:51.471Z,102322.19
2022-11-30T17:49:19.497Z,102321.41
2022-11-30T17:51:47.452Z,102321.38
2022-11-30T17:54:15.510Z,102324.72
2022-11-30T17:56:43.762Z,102324.03
2022-11-30T17:59:13.471Z,102334.41
2022-11-30T18:01:41.547Z,102337.09
2022-11-30T18:04:09.903Z,102331.81
2022-11-30T18:06:37.687Z,102343.47
2022-11-30T18:09:05.728Z,102332.50
2022-11-30T18:11:36.190Z,102337.84
2022-11-30T18:14:05.705Z,102344.09
2022-11-30T18:16:38.124Z,102341.31
2022-11-30T18:19:11.921Z,102337.69
2022-11-30T18:21:40.397Z,102342.94
2022-11-30T18:24:08.725Z,102349.31
2022-11-30T18:26:36.430Z,102335.88
2022-11-30T18:29:04.257Z,102338.00
2022-11-30T18:31:37.736Z,102351.22
2022-11-30T18:34:08.309Z,102347.72
2022-11-30T18:36:36.195Z,102352.28
2022-11-30T18:39:04.096Z,102349.75
2022-11-30T18:41:31.876Z,102357.94
2022-11-30T18:43:59.705Z,102360.59
2022-11-30T18:46:33.067Z,102354.31
2022-11-30T18:49:01.767Z,102353.34
2022-11-30T18:51:32.252Z,102356.00
2022-11-30T18:54:01.677Z,102355.91
2022-11-30T18:56:31.157Z,102358.34
2022-11-30T18:58:59.942Z,102358.34
2022-11-30T19:01:32.782Z,102356.72
2022-11-30T19:04:02.793Z,102354.66
2022-11-30T19:06:33.130Z,102352.97
2022-11-30T19:09:04.331Z,102363.75
2022-11-30T19:11:42.783Z,102365.47
2022-11-30T19:14:14.075Z,102369.19
2022-11-30T19:16:44.564Z,102369.31
2022-11-30T19:19:15.044Z,102376.34
2022-11-30T19:21:47.786Z,102373.78
2022-11-30T19:24:16.601Z,102371.97
2022-11-30T19:26:46.984Z,102372.94
2022-11-30T19:29:14.849Z,102379.22
2022-11-30T19:31:42.858Z,102382.78
2022-11-30T19:34:13.078Z,102384.47
2022-11-30T19:36:41.522Z,102383.50
2022-11-30T19:39:11.399Z,102382.56
2022-11-30T19:41:39.338Z,102386.16
2022-11-30T19:44:07.237Z,102378.16
2022-11-30T19:46:35.259Z,102382.72
2022-11-30T19:49:03.702Z,102390.59
2022-11-30T19:51:32.468Z,102387.56
2022-11-30T19:54:00.424Z,102386.66
2022-11-30T19:56:31.368Z,102388.66
2022-11-30T19:59:04.620Z,102388.78
2022-11-30T20:01:34.505Z,102385.22
2022-11-30T20:04:03.412Z,102390.59
2022-11-30T20:06:32.827Z,102388.94
2022-11-30T20:09:00.719Z,102387.19
2022-11-30T20:11:30.005Z,102390.59
2022-11-30T20:13:58.449Z,102388.47
2022-11-30T20:16:26.377Z,102395.78
2022-11-30T20:18:55.907Z,102401.88
2022-11-30T20:21:25.964Z,102402.00
2022-11-30T20:23:57.939Z,102406.59
2022-11-30T20:26:30.013Z,102401.16
2022-11-30T20:29:00.979Z,102401.06
2022-11-30T20:31:30.266Z,102404.53
2022-11-30T20:33:58.174Z,102399.28
2022-11-30T20:36:26.857Z,102404.38
2022-11-30T20:38:54.961Z,102407.66
2022-11-30T20:41:24.997Z,102408.75
2022-11-30T20:43:53.597Z,102406.09
2022-11-30T20:46:24.987Z,102407.09
2022-11-30T20:48:53.594Z,102408.81
2022-11-30T20:51:33.472Z,102407.88
2022-11-30T20:54:03.638Z,102405.94
2022-11-30T20:56:31.776Z,102407.56
2022-11-30T20:59:02.782Z,102405.84
2022-11-30T21:01:32.023Z,102406.91
2022-11-30T21:04:00.904Z,102407.78
2022-11-30T21:06:29.665Z,102407.03
2022-11-30T21:08:57.684Z,102408.03
2022-11-30T21:11:25.555Z,102411.59
2022-11-30T21:13:53.364Z,102412.50
2022-11-30T21:16:27.673Z,102419.63
2022-11-30T21:18:59.246Z,102406.38
2022-11-30T21:21:30.500Z,102403.66
2022-11-30T21:24:00.310Z,102408.81
2022-11-30T21:26:30.373Z,102408.03
2022-11-30T21:29:01.799Z,102408.25
2022-11-30T21:31:30.266Z,102411.72
2022-11-30T21:33:59.986Z,102413.44
2022-11-30T21:36:27.955Z,102403.59
2022-11-30T21:39:04.146Z,102408.03
2022-11-30T21:41:33.872Z,102408.22
2022-11-30T21:44:04.236Z,102413.53
2022-11-30T21:46:32.122Z,102414.09
2022-11-30T21:49:01.388Z,102418.22
2022-11-30T21:51:31.631Z,102410.06
2022-11-30T21:54:01.750Z,102418.16
2022-11-30T21:56:36.481Z,102413.03
2022-11-30T21:59:06.842Z,102406.94
2022-11-30T22:01:37.791Z,102417.78
2022-11-30T22:04:09.555Z,102416.75
2022-11-30T22:06:39.722Z,102406.19
2022-11-30T22:09:09.791Z,102402.50
2022-11-30T22:11:39.657Z,102408.84
2022-11-30T22:14:08.556Z,102409.84
2022-11-30T22:16:36.809Z,102404.44
2022-11-30T22:19:07.408Z,102407.00
2022-11-30T22:21:35.793Z,102406.31
2022-11-30T22:24:06.002Z,102409.09
2022-11-30T22:26:35.690Z,102406.19
2022-11-30T22:29:05.851Z,102401.53
2022-11-30T22:31:35.611Z,102410.91
2022-11-30T22:34:04.219Z,102415.44
2022-11-30T22:36:36.267Z,102409.06
2022-11-30T22:39:06.562Z,102411.00
2022-11-30T22:41:34.744Z,102412.69
2022-11-30T22:44:02.815Z,102411.84
2022-11-30T22:46:32.645Z,102401.25
2022-11-30T22:49:01.502Z,102416.81
2022-11-30T22:51:32.189Z,102409.69
2022-11-30T22:54:02.381Z,102422.66
2022-11-30T22:56:32.054Z,102426.34
2022-11-30T22:59:01.150Z,102415.16
2022-11-30T23:01:30.631Z,102415.00
2022-11-30T23:04:03.757Z,102408.66
2022-11-30T23:06:31.720Z,102413.09
2022-11-30T23:09:01.003Z,102413.13
2022-11-30T23:11:30.317Z,102410.44
2022-11-30T23:13:58.213Z,102403.50
2022-11-30T23:16:26.490Z,102411.31
2022-11-30T23:18:57.245Z,102414.09
2022-11-30T23:21:27.089Z,102412.59
2022-11-30T23:23:56.341Z,102418.97
2022-11-30T23:26:27.565Z,102411.72
2022-11-30T23:28:56.931Z,102424.75
2022-11-30T23:31:34.219Z,102429.97
2022-11-30T23:34:06.031Z,102417.59
2022-11-30T23:36:34.107Z,102428.81
2022-11-30T23:39:04.693Z,102425.28
2022-11-30T23:41:34.019Z,102426.13
2022-11-30T23:44:02.526Z,102422.44
2022-11-30T23:46:30.763Z,102431.13
2022-11-30T23:48:58.699Z,102431.19
2022-11-30T23:51:30.197Z,102429.94
2022-11-30T23:53:58.052Z,102425.81
2022-11-30T23:56:26.067Z,102425.00
2022-11-30T23:58:55.327Z,102423.16
